METAR Data
IDs: Format: Raw Decoded Include TAF

Data at: 1327 UTC 26 Feb 2021

ENZV 261320Z 30015KT 9999 FEW008TCU 08/06 Q1027 NOSIG